createdAt,value
2022-12-26T00:01:22.679Z,99.90
2022-12-26T00:04:51.101Z,99.90
2022-12-26T00:07:16.776Z,99.90
2022-12-26T00:10:02.278Z,99.90
2022-12-26T00:12:47.445Z,99.90
2022-12-26T00:15:33.036Z,99.90
2022-12-26T00:18:18.552Z,99.90
2022-12-26T00:21:04.713Z,99.90
2022-12-26T00:23:50.605Z,99.90
2022-12-26T00:26:36.227Z,99.90
2022-12-26T00:29:22.973Z,99.90
2022-12-26T00:32:11.615Z,99.90
2022-12-26T00:34:57.286Z,99.90
2022-12-26T00:37:48.950Z,99.90
2022-12-26T00:40:43.050Z,99.90
2022-12-26T00:43:31.055Z,99.90
2022-12-26T00:46:17.622Z,99.90
2022-12-26T00:49:04.402Z,99.90
2022-12-26T00:51:58.995Z,99.90
2022-12-26T00:54:44.504Z,99.90
2022-12-26T00:57:30.035Z,99.90
2022-12-26T01:00:17.294Z,99.90
2022-12-26T01:03:10.421Z,99.90
2022-12-26T01:05:56.021Z,99.90
2022-12-26T01:08:41.792Z,99.90
2022-12-26T01:11:53.984Z,99.90
2022-12-26T01:14:39.816Z,99.90
2022-12-26T01:17:25.801Z,99.90
2022-12-26T01:20:11.813Z,99.90
2022-12-26T01:22:57.245Z,99.90
2022-12-26T01:26:15.607Z,99.90
2022-12-26T01:28:50.933Z,99.90
2022-12-26T01:31:36.449Z,99.90
2022-12-26T01:34:22.183Z,99.90
2022-12-26T01:37:07.744Z,99.90
2022-12-26T01:39:53.441Z,99.90
2022-12-26T01:42:42.840Z,99.90
2022-12-26T01:45:31.531Z,99.90
2022-12-26T01:48:33.460Z,99.90
2022-12-26T01:51:24.080Z,99.90
2022-12-26T01:54:37.382Z,99.90
2022-12-26T01:57:22.196Z,99.90
2022-12-26T02:00:14.693Z,99.90
2022-12-26T02:03:19.853Z,99.90
2022-12-26T02:06:05.734Z,99.90
2022-12-26T02:08:51.701Z,99.90
2022-12-26T02:11:42.834Z,99.90
2022-12-26T02:14:28.492Z,99.90
2022-12-26T02:17:14.406Z,99.90
2022-12-26T02:20:20.656Z,99.90
2022-12-26T02:23:44.285Z,99.90
2022-12-26T02:26:47.480Z,99.90
2022-12-26T02:29:44.656Z,99.90
2022-12-26T02:33:05.706Z,99.80
2022-12-26T02:36:15.988Z,99.60
2022-12-26T02:39:44.933Z,99.80
2022-12-26T02:42:48.607Z,99.90
2022-12-26T02:46:23.336Z,99.90
2022-12-26T02:49:30.133Z,99.90
2022-12-26T02:52:40.149Z,99.90
2022-12-26T02:55:47.609Z,99.90
2022-12-26T02:59:05.731Z,99.80
2022-12-26T03:02:13.031Z,99.60
2022-12-26T03:05:18.415Z,99.60
2022-12-26T03:08:28.119Z,99.50
2022-12-26T03:11:32.744Z,99.50
2022-12-26T03:14:22.984Z,99.60
2022-12-26T03:17:22.000Z,99.50
2022-12-26T03:20:18.249Z,99.60
2022-12-26T03:23:14.785Z,99.40
2022-12-26T03:26:24.988Z,99.20
2022-12-26T03:29:42.095Z,99.00
2022-12-26T03:32:27.666Z,99.10
2022-12-26T03:35:15.341Z,99.20
2022-12-26T03:38:08.153Z,99.20
2022-12-26T03:41:22.168Z,99.30
2022-12-26T03:44:32.296Z,99.30
2022-12-26T03:47:45.033Z,99.50
2022-12-26T03:51:06.246Z,99.60
2022-12-26T03:54:17.475Z,99.50
2022-12-26T03:57:41.940Z,99.70
2022-12-26T04:00:49.405Z,99.70
2022-12-26T04:03:55.054Z,99.50
2022-12-26T04:07:06.763Z,99.50
2022-12-26T04:10:22.403Z,99.50
2022-12-26T04:13:40.836Z,99.50
2022-12-26T04:16:47.936Z,99.70
2022-12-26T04:20:03.282Z,99.70
2022-12-26T04:23:28.783Z,99.80
2022-12-26T04:26:41.214Z,99.90
2022-12-26T04:29:45.091Z,99.80
2022-12-26T04:32:58.350Z,99.80
2022-12-26T04:36:12.834Z,99.80
2022-12-26T04:39:21.402Z,99.60
2022-12-26T04:42:27.062Z,99.50
2022-12-26T04:45:14.195Z,99.50
2022-12-26T04:48:18.013Z,99.40
2022-12-26T04:51:06.284Z,99.30
2022-12-26T04:53:54.586Z,99.20
2022-12-26T04:56:40.437Z,99.20
2022-12-26T04:59:26.305Z,99.10
2022-12-26T05:02:30.430Z,99.00
2022-12-26T05:05:34.478Z,98.90
2022-12-26T05:08:54.167Z,98.60
2022-12-26T05:11:39.465Z,98.60
2022-12-26T05:14:25.092Z,98.40
2022-12-26T05:17:32.150Z,98.50
2022-12-26T05:20:36.166Z,98.50
2022-12-26T05:23:43.968Z,98.50
2022-12-26T05:26:54.074Z,98.50
2022-12-26T05:29:39.293Z,98.50
2022-12-26T05:32:43.701Z,98.90
2022-12-26T05:35:29.062Z,98.60
2022-12-26T05:38:14.895Z,98.50
2022-12-26T05:41:00.423Z,98.40
2022-12-26T05:43:45.880Z,98.30
2022-12-26T05:46:33.042Z,98.00
2022-12-26T05:49:18.408Z,98.00
2022-12-26T05:52:03.821Z,97.80
2022-12-26T05:54:49.767Z,97.90
2022-12-26T05:57:35.064Z,97.90
2022-12-26T06:00:22.927Z,97.90
2022-12-26T06:03:11.318Z,98.00
2022-12-26T06:05:57.712Z,98.10
2022-12-26T06:08:43.705Z,98.10
2022-12-26T06:11:32.303Z,98.00
2022-12-26T06:14:18.200Z,98.00
2022-12-26T06:20:12.088Z,97.90
2022-12-26T06:23:00.242Z,97.90
2022-12-26T06:25:55.359Z,97.90
2022-12-26T06:28:42.707Z,97.90
2022-12-26T06:31:28.012Z,98.00
2022-12-26T06:34:13.823Z,98.20
2022-12-26T06:36:59.941Z,98.50
2022-12-26T06:39:46.762Z,98.70
2022-12-26T06:42:32.274Z,98.50
2022-12-26T06:45:18.023Z,98.10
2022-12-26T06:48:03.722Z,97.70
2022-12-26T06:50:49.029Z,97.60
2022-12-26T06:53:34.764Z,97.50
2022-12-26T06:56:23.473Z,97.60
2022-12-26T06:59:12.058Z,97.40
2022-12-26T07:01:57.860Z,97.30
2022-12-26T07:04:43.721Z,97.20
2022-12-26T07:07:29.010Z,97.30
2022-12-26T07:10:14.428Z,97.20
2022-12-26T07:12:59.934Z,97.10
2022-12-26T07:15:45.599Z,97.00
2022-12-26T07:18:31.113Z,96.70
2022-12-26T07:21:16.733Z,96.60
2022-12-26T07:24:02.252Z,96.30
2022-12-26T07:26:48.240Z,96.30
2022-12-26T07:29:34.064Z,96.20
2022-12-26T07:32:19.399Z,96.10
2022-12-26T07:35:05.479Z,96.20
2022-12-26T07:37:51.044Z,96.10
2022-12-26T07:40:39.181Z,95.40
2022-12-26T07:43:25.526Z,95.80
2022-12-26T07:46:11.148Z,96.30
2022-12-26T07:48:59.393Z,96.60
2022-12-26T07:51:47.844Z,97.10
2022-12-26T07:54:33.393Z,97.20
2022-12-26T08:00:23.890Z,97.70
2022-12-26T08:03:12.581Z,97.90
2022-12-26T08:05:59.367Z,98.10
2022-12-26T08:08:50.854Z,98.50
2022-12-26T08:11:36.727Z,98.60
2022-12-26T08:14:22.561Z,98.70
2022-12-26T08:17:10.954Z,98.60
2022-12-26T08:19:56.354Z,98.50
2022-12-26T08:22:41.754Z,98.40
2022-12-26T08:25:27.791Z,98.40
2022-12-26T08:28:13.436Z,98.30
2022-12-26T08:30:59.267Z,98.50
2022-12-26T08:33:44.949Z,98.60
2022-12-26T08:36:30.373Z,98.80
2022-12-26T08:39:18.446Z,99.00
2022-12-26T08:42:06.586Z,99.10
2022-12-26T08:44:52.342Z,99.10
2022-12-26T08:47:37.628Z,99.10
2022-12-26T08:50:23.223Z,99.10
2022-12-26T08:53:09.270Z,99.20
2022-12-26T08:55:56.490Z,99.10
2022-12-26T08:58:42.386Z,99.00
2022-12-26T09:01:30.626Z,98.90
2022-12-26T09:04:16.354Z,98.90
2022-12-26T09:07:01.694Z,98.90
2022-12-26T09:09:48.705Z,98.90
2022-12-26T09:12:34.093Z,99.00
2022-12-26T09:15:20.207Z,99.00
2022-12-26T09:18:05.664Z,98.80
2022-12-26T09:20:50.961Z,98.60
2022-12-26T09:23:37.708Z,98.70
2022-12-26T09:26:22.911Z,98.60
2022-12-26T09:29:11.041Z,97.70
2022-12-26T09:31:56.572Z,97.30
2022-12-26T09:34:44.740Z,97.30
2022-12-26T09:37:30.181Z,96.90
2022-12-26T09:40:27.132Z,97.20
2022-12-26T09:43:32.048Z,96.90
2022-12-26T09:46:23.297Z,96.00
2022-12-26T09:49:41.694Z,96.10
2022-12-26T09:52:40.249Z,96.00
2022-12-26T09:55:44.414Z,95.70
2022-12-26T09:58:34.090Z,95.90
2022-12-26T10:01:23.705Z,95.60
2022-12-26T10:04:28.574Z,95.70
2022-12-26T10:07:30.633Z,95.80
2022-12-26T10:10:51.328Z,95.80
2022-12-26T10:14:03.580Z,95.80
2022-12-26T10:17:01.460Z,95.50
2022-12-26T10:20:29.444Z,95.70
2022-12-26T10:23:31.512Z,95.10
2022-12-26T10:26:39.608Z,94.80
2022-12-26T10:29:38.212Z,95.10
2022-12-26T10:32:33.530Z,95.00
2022-12-26T10:35:22.124Z,95.20
2022-12-26T10:38:44.566Z,94.60
2022-12-26T10:41:41.893Z,94.30
2022-12-26T10:44:28.897Z,94.10
2022-12-26T10:47:32.842Z,93.90
2022-12-26T10:50:26.980Z,93.90
2022-12-26T10:53:14.384Z,93.50
2022-12-26T10:56:01.935Z,93.30
2022-12-26T10:58:59.101Z,93.60
2022-12-26T11:01:47.773Z,93.80
2022-12-26T11:07:49.622Z,92.60
2022-12-26T11:10:37.708Z,91.70
2022-12-26T11:13:23.463Z,91.20
2022-12-26T11:16:10.639Z,91.00
2022-12-26T11:18:57.374Z,90.50
2022-12-26T11:21:43.074Z,90.10
2022-12-26T11:24:28.592Z,89.70
2022-12-26T11:27:20.466Z,90.80
2022-12-26T11:30:14.986Z,90.00
2022-12-26T11:33:15.218Z,90.20
2022-12-26T11:36:15.285Z,88.70
2022-12-26T11:39:22.058Z,86.30
2022-12-26T11:42:15.137Z,83.20
2022-12-26T11:45:09.932Z,80.80
2022-12-26T11:47:58.031Z,75.20
2022-12-26T11:50:46.452Z,71.20
2022-12-26T11:53:34.566Z,71.70
2022-12-26T11:56:28.673Z,72.60
2022-12-26T11:59:23.801Z,70.70
2022-12-26T12:02:32.492Z,70.70
2022-12-26T12:05:56.185Z,70.00
2022-12-26T12:09:05.948Z,70.40
2022-12-26T12:12:12.581Z,69.10
2022-12-26T12:15:12.833Z,67.90
2022-12-26T12:18:19.392Z,67.90
2022-12-26T12:21:32.304Z,66.30
2022-12-26T12:24:32.457Z,63.80
2022-12-26T12:27:50.320Z,64.40
2022-12-26T12:30:47.049Z,61.00
2022-12-26T12:34:00.869Z,61.80
2022-12-26T12:37:08.955Z,58.10
2022-12-26T12:40:16.058Z,57.10
2022-12-26T12:43:42.770Z,57.40
2022-12-26T12:46:59.016Z,52.70
2022-12-26T12:50:09.625Z,53.30
2022-12-26T12:53:18.303Z,50.80
2022-12-26T12:56:37.021Z,49.30
2022-12-26T12:59:52.833Z,49.50
2022-12-26T13:02:41.683Z,51.50
2022-12-26T13:05:33.340Z,52.70
2022-12-26T13:08:30.792Z,53.10
2022-12-26T13:11:42.400Z,50.90
2022-12-26T13:14:34.919Z,50.80
2022-12-26T13:17:33.053Z,48.50
2022-12-26T13:20:25.715Z,46.10
2022-12-26T13:23:40.540Z,44.90
2022-12-26T13:26:39.100Z,45.80
2022-12-26T13:29:25.321Z,46.90
2022-12-26T13:32:22.115Z,49.30
2022-12-26T13:35:46.253Z,49.20
2022-12-26T13:38:56.481Z,47.50
2022-12-26T13:42:34.401Z,48.00
2022-12-26T13:45:35.726Z,46.40
2022-12-26T13:48:29.664Z,45.70
2022-12-26T13:51:53.630Z,43.50
2022-12-26T13:54:48.376Z,42.60
2022-12-26T13:57:42.718Z,39.50
2022-12-26T14:00:48.523Z,38.90
2022-12-26T14:03:44.906Z,38.00
2022-12-26T14:06:41.829Z,39.80
2022-12-26T14:09:44.079Z,39.30
2022-12-26T14:12:47.553Z,38.90
2022-12-26T14:15:57.068Z,35.80
2022-12-26T14:19:04.765Z,37.60
2022-12-26T14:22:18.495Z,39.00
2022-12-26T14:25:23.915Z,42.30
2022-12-26T14:28:50.383Z,42.90
2022-12-26T14:31:41.377Z,44.80
2022-12-26T14:35:05.988Z,46.00
2022-12-26T14:41:36.759Z,48.90
2022-12-26T14:44:22.447Z,47.60
2022-12-26T14:47:10.230Z,49.80
2022-12-26T14:49:55.737Z,50.00
2022-12-26T14:52:43.828Z,50.20
2022-12-26T14:55:47.880Z,49.30
2022-12-26T14:58:43.870Z,50.60
2022-12-26T15:01:32.624Z,51.30
2022-12-26T15:04:36.562Z,50.70
2022-12-26T15:08:09.758Z,51.00
2022-12-26T15:11:22.166Z,51.40
2022-12-26T15:14:41.446Z,52.20
2022-12-26T15:17:49.280Z,52.40
2022-12-26T15:20:44.634Z,53.10
2022-12-26T15:23:53.392Z,53.00
2022-12-26T15:26:57.060Z,54.10
2022-12-26T15:30:06.509Z,55.50
2022-12-26T15:33:11.592Z,57.20
2022-12-26T15:36:15.343Z,58.90
2022-12-26T15:39:21.640Z,60.20
2022-12-26T15:42:44.091Z,62.20
2022-12-26T15:45:48.089Z,64.00
2022-12-26T15:49:01.416Z,66.60
2022-12-26T15:51:59.388Z,67.20
2022-12-26T15:55:17.765Z,68.00
2022-12-26T15:58:20.032Z,69.30
2022-12-26T16:01:05.749Z,70.10
2022-12-26T16:03:55.738Z,70.60
2022-12-26T16:06:47.245Z,71.70
2022-12-26T16:09:44.339Z,73.00
2022-12-26T16:12:31.137Z,73.30
2022-12-26T16:15:17.783Z,73.90
2022-12-26T16:18:14.523Z,74.90
2022-12-26T16:21:26.085Z,76.00
2022-12-26T16:24:13.590Z,76.30
2022-12-26T16:27:02.795Z,77.00
2022-12-26T16:29:58.307Z,77.50
2022-12-26T16:32:44.445Z,78.30
2022-12-26T16:35:34.935Z,78.70
2022-12-26T16:38:30.260Z,79.30
2022-12-26T16:41:27.004Z,79.80
2022-12-26T16:44:35.389Z,80.20
2022-12-26T16:47:21.221Z,80.50
2022-12-26T16:50:14.835Z,81.80
2022-12-26T16:53:15.711Z,81.20
2022-12-26T16:56:26.874Z,81.40
2022-12-26T16:59:17.505Z,81.80
2022-12-26T17:02:04.233Z,82.00
2022-12-26T17:04:58.215Z,82.10
2022-12-26T17:07:46.495Z,82.50
2022-12-26T17:10:37.391Z,82.80
2022-12-26T17:13:26.386Z,83.00
2022-12-26T17:16:14.367Z,82.90
2022-12-26T17:19:19.037Z,82.80
2022-12-26T17:22:28.289Z,82.50
2022-12-26T17:25:33.490Z,82.10
2022-12-26T17:28:19.847Z,81.70
2022-12-26T17:31:17.260Z,81.30
2022-12-26T17:34:13.314Z,80.90
2022-12-26T17:37:20.552Z,81.50
2022-12-26T17:40:14.658Z,80.30
2022-12-26T17:43:14.494Z,80.20
2022-12-26T17:46:01.131Z,80.30
2022-12-26T17:48:46.850Z,80.90
2022-12-26T17:51:32.044Z,80.10
2022-12-26T17:54:17.767Z,79.90
2022-12-26T17:57:03.257Z,79.90
2022-12-26T17:59:50.428Z,79.80
2022-12-26T18:02:41.649Z,79.70
2022-12-26T18:05:27.375Z,80.00
2022-12-26T18:08:41.872Z,79.90
2022-12-26T18:11:28.334Z,79.70
2022-12-26T18:14:14.484Z,79.80
2022-12-26T18:17:01.868Z,78.90
2022-12-26T18:19:49.294Z,79.00
2022-12-26T18:22:34.704Z,78.70
2022-12-26T18:25:22.952Z,78.20
2022-12-26T18:28:16.848Z,78.00
2022-12-26T18:31:02.450Z,78.40
2022-12-26T18:33:47.698Z,78.50
2022-12-26T18:36:36.761Z,78.50
2022-12-26T18:39:22.002Z,78.20
2022-12-26T18:42:14.867Z,78.10
2022-12-26T18:45:00.436Z,78.30
2022-12-26T18:47:45.555Z,78.10
2022-12-26T18:50:32.423Z,78.00
2022-12-26T18:53:18.719Z,78.10
2022-12-26T18:56:05.638Z,79.00
2022-12-26T18:58:57.376Z,80.00
2022-12-26T19:01:43.704Z,80.30
2022-12-26T19:04:29.284Z,80.70
2022-12-26T19:07:17.053Z,81.40
2022-12-26T19:10:02.777Z,81.90
2022-12-26T19:12:48.649Z,82.00
2022-12-26T19:15:35.508Z,82.00
2022-12-26T19:18:20.752Z,82.10
2022-12-26T19:21:14.429Z,82.20
2022-12-26T19:23:59.728Z,82.40
2022-12-26T19:26:45.938Z,82.40
2022-12-26T19:29:32.927Z,82.40
2022-12-26T19:32:21.450Z,82.00
2022-12-26T19:35:07.695Z,81.70
2022-12-26T19:37:58.361Z,81.50
2022-12-26T19:40:43.912Z,81.50
2022-12-26T19:43:29.623Z,81.40
2022-12-26T19:46:15.922Z,81.00
2022-12-26T19:49:01.098Z,80.40
2022-12-26T19:51:46.709Z,80.00
2022-12-26T19:54:32.199Z,80.20
2022-12-26T19:57:17.792Z,80.70
2022-12-26T20:00:04.917Z,81.00
2022-12-26T20:02:57.432Z,81.80
2022-12-26T20:05:42.947Z,82.10
2022-12-26T20:08:29.195Z,82.10
2022-12-26T20:11:27.295Z,82.00
2022-12-26T20:14:15.617Z,82.00
2022-12-26T20:17:06.218Z,82.10
2022-12-26T20:19:53.073Z,83.00
2022-12-26T20:22:40.819Z,83.70
2022-12-26T20:25:27.841Z,84.20
2022-12-26T20:28:13.401Z,84.50
2022-12-26T20:31:11.618Z,84.30
2022-12-26T20:33:59.173Z,84.50
2022-12-26T20:36:44.677Z,85.00
2022-12-26T20:39:33.369Z,85.70
2022-12-26T20:42:21.870Z,85.70
2022-12-26T20:45:08.059Z,85.80
2022-12-26T20:47:53.664Z,86.10
2022-12-26T20:50:55.200Z,86.70
2022-12-26T20:53:41.491Z,87.00
2022-12-26T20:56:27.257Z,87.50
2022-12-26T20:59:12.788Z,88.00
2022-12-26T21:01:58.182Z,88.20
2022-12-26T21:04:46.410Z,88.20
2022-12-26T21:07:33.236Z,88.60
2022-12-26T21:10:18.603Z,88.60
2022-12-26T21:13:04.082Z,88.70
2022-12-26T21:15:52.412Z,88.70
2022-12-26T21:18:38.857Z,89.30
2022-12-26T21:21:27.449Z,89.40
2022-12-26T21:24:28.804Z,89.50
2022-12-26T21:27:16.964Z,89.50
2022-12-26T21:30:02.223Z,89.60
2022-12-26T21:32:47.512Z,89.80
2022-12-26T21:35:39.647Z,89.90
2022-12-26T21:38:28.885Z,90.10
2022-12-26T21:41:14.609Z,90.00
2022-12-26T21:44:00.363Z,89.70
2022-12-26T21:46:45.754Z,89.40
2022-12-26T21:49:40.488Z,89.90
2022-12-26T21:52:26.430Z,89.90
2022-12-26T21:55:26.968Z,90.00
2022-12-26T21:58:12.362Z,90.10
2022-12-26T22:01:18.977Z,90.10
2022-12-26T22:04:19.101Z,90.10
2022-12-26T22:07:04.412Z,90.10
2022-12-26T22:09:50.038Z,89.90
2022-12-26T22:12:54.132Z,90.00
2022-12-26T22:16:02.633Z,90.10
2022-12-26T22:18:48.084Z,90.10
2022-12-26T22:21:33.490Z,90.20
2022-12-26T22:24:18.876Z,90.40
2022-12-26T22:27:04.000Z,90.30
2022-12-26T22:29:49.519Z,90.60
2022-12-26T22:32:35.147Z,90.60
2022-12-26T22:35:21.429Z,90.70
2022-12-26T22:38:06.668Z,90.70
2022-12-26T22:40:57.895Z,90.60
2022-12-26T22:43:43.473Z,90.60
2022-12-26T22:46:29.200Z,90.60
2022-12-26T22:49:14.511Z,90.80
2022-12-26T22:52:02.921Z,91.00
2022-12-26T22:54:48.213Z,91.20
2022-12-26T22:57:33.816Z,91.20
2022-12-26T23:00:19.610Z,91.30
2022-12-26T23:03:05.340Z,91.50
2022-12-26T23:05:51.051Z,91.70
2022-12-26T23:08:41.472Z,91.80
2022-12-26T23:11:34.332Z,91.90
2022-12-26T23:14:20.990Z,91.90
2022-12-26T23:17:10.627Z,91.80
2022-12-26T23:20:14.640Z,91.90
2022-12-26T23:23:00.158Z,91.90
2022-12-26T23:25:47.990Z,92.10
2022-12-26T23:28:51.964Z,92.00
2022-12-26T23:31:37.608Z,92.10
2022-12-26T23:34:29.177Z,92.10
2022-12-26T23:37:14.451Z,92.00
2022-12-26T23:40:00.052Z,91.90
2022-12-26T23:42:46.021Z,92.00
2022-12-26T23:45:31.628Z,92.10
2022-12-26T23:48:17.375Z,92.20
2022-12-26T23:51:05.027Z,92.30
2022-12-26T23:53:50.587Z,92.20
2022-12-26T23:56:36.433Z,92.10
2022-12-26T23:59:21.922Z,92.10
